createdAt,value
2022-10-11T00:02:16.364Z,39.40
2022-10-11T00:04:44.756Z,35.80
2022-10-11T00:07:11.803Z,35.20
2022-10-11T00:09:39.741Z,27.90
2022-10-11T00:12:06.977Z,28.30
2022-10-11T00:14:34.581Z,28.00
2022-10-11T00:17:01.659Z,29.20
2022-10-11T00:19:29.477Z,25.30
2022-10-11T00:21:56.747Z,29.40
2022-10-11T00:24:23.766Z,28.10
2022-10-11T00:26:50.916Z,30.00
2022-10-11T00:29:19.083Z,26.50
2022-10-11T00:31:46.317Z,23.90
2022-10-11T00:34:13.641Z,26.30
2022-10-11T00:36:41.369Z,26.30
2022-10-11T00:39:08.725Z,26.80
2022-10-11T00:41:36.637Z,25.00
2022-10-11T00:44:19.168Z,26.40
2022-10-11T00:47:03.789Z,25.20
2022-10-11T00:49:39.045Z,26.80
2022-10-11T00:52:16.199Z,20.40
2022-10-11T00:54:44.281Z,18.60
2022-10-11T00:57:14.587Z,25.70
2022-10-11T00:59:45.440Z,22.10
2022-10-11T01:02:12.597Z,19.60
2022-10-11T01:04:39.834Z,23.80
2022-10-11T01:07:06.798Z,20.90
2022-10-11T01:09:34.122Z,19.10
2022-10-11T01:12:02.955Z,19.90
2022-10-11T01:14:59.735Z,18.70
2022-10-11T01:17:30.051Z,19.90
2022-10-11T01:20:28.277Z,22.40
2022-10-11T01:23:01.669Z,18.60
2022-10-11T01:25:34.990Z,21.30
2022-10-11T01:28:30.128Z,22.10
2022-10-11T01:31:01.017Z,19.70
2022-10-11T01:33:41.493Z,17.30
2022-10-11T01:36:20.218Z,15.70
2022-10-11T01:38:51.064Z,24.10
2022-10-11T01:41:46.510Z,21.40
2022-10-11T01:44:15.362Z,17.90
2022-10-11T01:46:42.445Z,20.30
2022-10-11T01:49:09.497Z,19.60
2022-10-11T01:51:43.963Z,17.10
2022-10-11T01:54:56.476Z,23.30
2022-10-11T01:57:21.662Z,19.00
2022-10-11T01:59:48.718Z,14.70
2022-10-11T02:02:34.705Z,16.60
2022-10-11T02:05:06.925Z,16.70
2022-10-11T02:07:33.942Z,16.70
2022-10-11T02:10:07.818Z,17.00
2022-10-11T02:12:41.825Z,16.90
2022-10-11T02:15:11.770Z,16.10
2022-10-11T02:17:41.488Z,15.80
2022-10-11T02:20:11.734Z,14.40
2022-10-11T02:22:39.427Z,13.00
2022-10-11T02:25:09.121Z,17.30
2022-10-11T02:27:38.524Z,13.90
2022-10-11T02:30:07.722Z,13.60
2022-10-11T02:32:35.293Z,13.10
2022-10-11T02:35:04.266Z,12.30
2022-10-11T02:37:32.248Z,13.70
2022-10-11T02:40:22.408Z,12.00
2022-10-11T02:43:01.457Z,10.70
2022-10-11T02:45:37.817Z,10.20
2022-10-11T02:48:05.611Z,12.00
2022-10-11T02:50:32.696Z,11.90
2022-10-11T02:53:00.154Z,13.90
2022-10-11T02:55:27.429Z,13.20
2022-10-11T02:57:54.909Z,15.00
2022-10-11T03:00:22.230Z,12.40
2022-10-11T03:02:49.514Z,10.60
2022-10-11T03:05:17.207Z,11.40
2022-10-11T03:07:45.883Z,12.60
2022-10-11T03:10:13.029Z,14.70
2022-10-11T03:12:40.092Z,13.00
2022-10-11T03:15:10.890Z,12.00
2022-10-11T03:17:39.507Z,13.60
2022-10-11T03:20:07.479Z,12.90
2022-10-11T03:22:34.788Z,13.30
2022-10-11T03:25:06.910Z,10.10
2022-10-11T03:27:36.274Z,14.00
2022-10-11T03:30:04.310Z,13.80
2022-10-11T03:32:31.501Z,13.60
2022-10-11T03:34:59.321Z,13.00
2022-10-11T03:37:26.309Z,13.40
2022-10-11T03:39:53.556Z,16.90
2022-10-11T03:42:20.637Z,17.70
2022-10-11T03:44:50.281Z,15.70
2022-10-11T03:47:17.486Z,14.20
2022-10-11T03:49:45.554Z,18.60
2022-10-11T03:52:12.929Z,16.90
2022-10-11T03:54:39.948Z,16.30
2022-10-11T03:57:06.969Z,19.10
2022-10-11T03:59:35.243Z,21.20
2022-10-11T04:02:02.329Z,17.90
2022-10-11T04:04:29.799Z,18.80
2022-10-11T04:06:56.785Z,19.40
2022-10-11T04:09:24.089Z,17.60
2022-10-11T04:11:52.085Z,15.20
2022-10-11T04:14:19.037Z,21.20
2022-10-11T04:16:46.041Z,23.10
2022-10-11T04:19:13.682Z,26.60
2022-10-11T04:21:41.535Z,56.60
2022-10-11T04:24:11.086Z,75.40
2022-10-11T04:26:39.089Z,77.30
2022-10-11T04:29:06.209Z,50.30
2022-10-11T04:31:35.508Z,47.90
2022-10-11T04:34:02.812Z,55.90
2022-10-11T04:36:33.068Z,58.60
2022-10-11T04:39:01.760Z,52.40
2022-10-11T04:41:29.580Z,33.80
2022-10-11T04:43:57.198Z,42.90
2022-10-11T04:46:24.677Z,37.50
2022-10-11T04:48:51.840Z,32.70
2022-10-11T04:51:18.982Z,28.20
2022-10-11T04:53:46.027Z,24.30
2022-10-11T04:56:15.056Z,24.60
2022-10-11T04:58:42.454Z,26.40
2022-10-11T05:01:10.123Z,22.90
2022-10-11T05:03:37.625Z,28.70
2022-10-11T05:06:06.070Z,26.50
2022-10-11T05:08:33.937Z,22.70
2022-10-11T05:11:09.818Z,33.30
2022-10-11T05:13:37.560Z,38.20
2022-10-11T05:16:10.298Z,31.80
2022-10-11T05:18:38.137Z,25.60
2022-10-11T05:21:15.955Z,33.50
2022-10-11T05:23:43.129Z,43.60
2022-10-11T05:26:10.179Z,41.90
2022-10-11T05:28:37.999Z,39.60
2022-10-11T05:31:05.618Z,28.30
2022-10-11T05:33:32.711Z,30.30
2022-10-11T05:36:00.598Z,35.30
2022-10-11T05:38:27.794Z,26.40
2022-10-11T05:40:54.899Z,62.80
2022-10-11T05:43:21.896Z,66.90
2022-10-11T05:48:20.096Z,57.20
2022-10-11T05:50:47.848Z,52.30
2022-10-11T05:53:14.780Z,53.60
2022-10-11T05:55:42.610Z,76.20
2022-10-11T05:58:13.930Z,94.70
2022-10-11T06:00:41.159Z,74.90
2022-10-11T06:03:08.580Z,85.50
2022-10-11T06:05:37.969Z,107.30
2022-10-11T06:08:06.723Z,152.70
2022-10-11T06:10:33.853Z,228.60
2022-10-11T06:13:00.966Z,233.60
2022-10-11T06:15:28.046Z,167.30
2022-10-11T06:17:59.905Z,117.30
2022-10-11T06:20:28.516Z,61.40
2022-10-11T06:22:55.825Z,61.90
2022-10-11T06:25:22.912Z,57.20
2022-10-11T06:27:50.035Z,53.50
2022-10-11T06:30:17.261Z,30.70
2022-10-11T06:32:44.745Z,34.10
2022-10-11T06:35:11.944Z,24.20
2022-10-11T06:37:38.963Z,33.80
2022-10-11T06:40:06.638Z,25.10
2022-10-11T06:42:33.647Z,22.60
2022-10-11T06:45:00.592Z,26.00
2022-10-11T06:47:28.031Z,18.90
2022-10-11T06:49:55.274Z,18.00
2022-10-11T06:52:22.589Z,17.20
2022-10-11T06:54:50.820Z,15.60
2022-10-11T06:57:17.927Z,27.10
2022-10-11T06:59:44.901Z,18.70
2022-10-11T10:09:28.149Z,8.60
2022-10-11T10:11:56.350Z,45.60
2022-10-11T10:14:31.866Z,13.60
2022-10-11T10:17:03.197Z,17.30
2022-10-11T10:19:34.838Z,12.80
2022-10-11T10:22:01.287Z,14.70
2022-10-11T10:24:37.718Z,12.70
2022-10-11T10:27:10.483Z,9.30
2022-10-11T10:29:38.420Z,10.60
2022-10-11T10:32:15.968Z,8.70
2022-10-11T10:35:20.163Z,14.70
2022-10-11T10:38:06.943Z,16.60
2022-10-11T10:41:00.806Z,47.70
2022-10-11T10:43:30.720Z,12.90
2022-10-11T10:46:28.119Z,17.70
2022-10-11T10:52:20.685Z,19.70
2022-10-11T10:55:02.606Z,11.60
2022-10-11T10:57:36.312Z,14.70
2022-10-11T11:00:15.466Z,12.70
2022-10-11T11:03:01.901Z,17.20
2022-10-11T11:05:56.138Z,10.00
2022-10-11T11:08:40.815Z,13.60
2022-10-11T11:11:11.974Z,10.70
2022-10-11T11:13:52.051Z,12.00
2022-10-11T11:16:51.390Z,13.10
2022-10-11T11:19:30.196Z,15.80
2022-10-11T11:22:01.579Z,12.00
2022-10-11T11:24:40.115Z,18.00
2022-10-11T11:27:14.818Z,32.80
2022-10-11T11:29:55.567Z,30.90
2022-10-11T11:32:48.842Z,11.30
2022-10-11T11:35:40.698Z,17.60
2022-10-11T11:38:14.574Z,12.10
2022-10-11T11:40:45.942Z,7.80
2022-10-11T11:43:18.766Z,16.10
2022-10-11T11:46:13.585Z,11.60
2022-10-11T11:48:39.998Z,12.40
2022-10-11T11:51:19.132Z,13.40
2022-10-11T11:54:01.182Z,14.40
2022-10-11T11:56:46.518Z,13.40
2022-10-11T11:59:16.218Z,10.60
2022-10-11T12:01:51.246Z,13.70
2022-10-11T12:04:39.135Z,13.40
2022-10-11T12:07:22.391Z,11.10
2022-10-11T12:09:51.782Z,13.80
2022-10-11T12:12:33.459Z,20.30
2022-10-11T12:17:55.323Z,11.70
2022-10-11T12:20:29.294Z,12.30
2022-10-11T12:23:00.175Z,11.10
2022-10-11T12:25:26.465Z,19.40
2022-10-11T12:27:54.227Z,23.40
2022-10-11T12:30:50.143Z,15.60
2022-10-11T12:33:42.565Z,25.20
2022-10-11T12:36:28.190Z,18.70
2022-10-11T12:39:38.109Z,40.10
2022-10-11T12:42:18.066Z,15.90
2022-10-11T12:45:14.338Z,14.10
2022-10-11T12:48:02.298Z,14.00
2022-10-11T12:50:33.874Z,125.80
2022-10-11T12:53:37.775Z,175.70
2022-10-11T12:56:26.601Z,84.10
2022-10-11T12:59:01.020Z,97.30
2022-10-11T13:01:33.301Z,111.90
2022-10-11T13:04:03.429Z,232.90
2022-10-11T13:06:45.551Z,43.00
2022-10-11T13:09:44.165Z,38.70
2022-10-11T13:12:20.240Z,36.10
2022-10-11T13:14:59.925Z,60.70
2022-10-11T13:17:34.491Z,35.40
2022-10-11T13:20:12.535Z,18.40
2022-10-11T13:22:39.859Z,47.20
2022-10-11T13:25:07.036Z,88.40
2022-10-11T13:27:33.265Z,29.30
2022-10-11T13:30:01.712Z,19.20
2022-10-11T13:32:29.567Z,26.60
2022-10-11T13:35:02.669Z,24.80
2022-10-11T13:37:29.500Z,12.80
2022-10-11T13:39:56.051Z,19.30
2022-10-11T13:42:29.180Z,21.70
2022-10-11T13:44:55.731Z,23.70
2022-10-11T13:47:24.276Z,33.50
2022-10-11T13:50:00.978Z,37.40
2022-10-11T13:52:27.313Z,22.60
2022-10-11T13:55:00.301Z,20.70
2022-10-11T13:57:38.912Z,17.30
2022-10-11T14:00:14.983Z,33.30
2022-10-11T14:02:56.912Z,30.90
2022-10-11T14:05:30.429Z,21.10
2022-10-11T14:08:01.188Z,23.10
2022-10-11T14:10:30.646Z,18.50
2022-10-11T14:13:06.807Z,22.80
2022-10-11T14:15:36.269Z,27.20
2022-10-11T14:18:36.278Z,32.90
2022-10-11T14:21:18.873Z,28.20
2022-10-11T14:24:00.499Z,30.90
2022-10-11T14:26:55.839Z,19.00
2022-10-11T14:29:28.842Z,14.60
2022-10-11T14:32:02.533Z,17.20
2022-10-11T14:34:28.913Z,19.90
2022-10-11T14:36:55.370Z,13.30
2022-10-11T14:39:25.663Z,18.00
2022-10-11T14:41:52.209Z,25.40
2022-10-11T14:44:18.665Z,26.20
2022-10-11T14:46:45.505Z,27.80
2022-10-11T14:49:28.726Z,27.70
2022-10-11T14:51:55.926Z,23.30
2022-10-11T14:54:23.099Z,20.30
2022-10-11T14:56:53.407Z,26.30
2022-10-11T14:59:21.756Z,20.70
2022-10-11T15:01:52.833Z,25.40
2022-10-11T15:04:20.071Z,26.70
2022-10-11T15:06:46.836Z,34.80
2022-10-11T15:09:13.203Z,24.70
2022-10-11T15:11:39.701Z,27.60
2022-10-11T15:14:06.758Z,23.10
2022-10-11T15:16:34.588Z,107.20
2022-10-11T15:19:01.114Z,182.90
2022-10-11T15:21:28.198Z,62.60
2022-10-11T15:23:54.978Z,51.20
2022-10-11T15:26:25.669Z,34.60
2022-10-11T15:28:52.818Z,28.80
2022-10-11T15:31:19.374Z,36.70
2022-10-11T15:33:46.151Z,37.50
2022-10-11T15:36:17.335Z,43.30
2022-10-11T15:38:43.847Z,28.40
2022-10-11T15:41:12.735Z,30.90
2022-10-11T15:43:39.701Z,27.50
2022-10-11T15:46:13.123Z,30.60
2022-10-11T15:48:39.899Z,49.50
2022-10-11T15:51:06.187Z,36.90
2022-10-11T15:53:33.118Z,33.40
2022-10-11T15:56:01.571Z,40.20
2022-10-11T15:58:28.842Z,39.20
2022-10-11T16:00:57.421Z,39.60
2022-10-11T16:03:25.281Z,52.00
2022-10-11T16:07:43.924Z,65.40
2022-10-11T16:10:10.970Z,37.90
2022-10-11T16:12:37.998Z,38.60
2022-10-11T16:15:06.121Z,41.10
2022-10-11T16:17:33.655Z,48.40
2022-10-11T16:20:01.146Z,45.50
2022-10-11T16:22:28.189Z,50.70
2022-10-11T16:24:55.155Z,50.20
2022-10-11T16:27:23.164Z,58.10
2022-10-11T16:29:50.414Z,64.80
2022-10-11T16:32:17.425Z,59.20
2022-10-11T16:37:33.114Z,64.50
2022-10-11T16:40:00.242Z,78.20
2022-10-11T16:42:27.531Z,77.30
2022-10-11T16:44:54.453Z,65.10
2022-10-11T16:47:21.796Z,49.20
2022-10-11T16:49:49.316Z,61.70
2022-10-11T16:52:16.324Z,66.10
2022-10-11T16:54:45.457Z,62.90
2022-10-11T16:57:13.470Z,57.40
2022-10-11T16:59:41.045Z,82.30
2022-10-11T17:02:09.885Z,58.20
2022-10-11T17:04:36.854Z,62.60
2022-10-11T17:07:04.324Z,56.10
2022-10-11T17:09:31.368Z,59.30
2022-10-11T17:11:58.301Z,53.40
2022-10-11T17:14:25.563Z,44.40
2022-10-11T17:16:53.241Z,44.30
2022-10-11T17:19:20.157Z,73.90
2022-10-11T17:21:47.250Z,56.60
2022-10-11T17:24:14.212Z,60.40
2022-10-11T17:26:42.431Z,50.10
2022-10-11T17:29:13.194Z,61.20
2022-10-11T17:31:48.108Z,58.70
2022-10-11T17:34:16.505Z,62.30
2022-10-11T17:36:43.688Z,55.10
2022-10-11T17:39:16.968Z,49.30
2022-10-11T17:41:45.836Z,46.50
2022-10-11T17:44:13.035Z,101.50
2022-10-11T17:46:40.218Z,78.70
2022-10-11T17:49:07.777Z,80.20
2022-10-11T17:51:36.503Z,93.80
2022-10-11T17:54:04.741Z,87.30
2022-10-11T17:56:37.385Z,72.60
2022-10-11T17:59:05.606Z,69.20
2022-10-11T18:01:32.823Z,62.50
2022-10-11T18:04:04.432Z,75.90
2022-10-11T18:06:35.073Z,87.60
2022-10-11T18:09:02.472Z,76.70
2022-10-11T18:11:33.592Z,91.40
2022-10-11T18:14:02.110Z,75.00
2022-10-11T18:16:29.912Z,69.80
2022-10-11T18:18:57.906Z,73.20
2022-10-11T18:21:28.767Z,70.50
2022-10-11T18:24:01.909Z,58.50
2022-10-11T18:26:30.625Z,64.30
2022-10-11T18:28:58.470Z,65.20
2022-10-11T18:31:29.874Z,49.90
2022-10-11T18:33:56.901Z,59.40
2022-10-11T18:36:26.935Z,70.30
2022-10-11T18:38:59.120Z,61.60
2022-10-11T18:41:31.903Z,94.40
2022-10-11T18:44:01.781Z,74.80
2022-10-11T18:46:29.181Z,71.10
2022-10-11T18:48:56.887Z,105.10
2022-10-11T18:51:27.929Z,70.70
2022-10-11T18:53:55.053Z,100.80
2022-10-11T18:56:23.933Z,71.70
2022-10-11T18:58:51.968Z,90.50
2022-10-11T19:01:20.279Z,85.40
2022-10-11T19:03:49.212Z,97.90
2022-10-11T19:06:17.821Z,63.70
2022-10-11T19:09:04.620Z,113.30
2022-10-11T19:11:36.823Z,118.10
2022-10-11T19:14:08.982Z,100.90
2022-10-11T19:16:39.190Z,116.10
2022-10-11T19:19:07.263Z,115.80
2022-10-11T19:21:34.377Z,111.50
2022-10-11T19:24:01.343Z,77.10
2022-10-11T19:26:33.628Z,102.50
2022-10-11T19:29:08.881Z,88.20
2022-10-11T19:31:37.458Z,86.40
2022-10-11T19:34:04.579Z,84.20
2022-10-11T19:36:36.444Z,96.70
2022-10-11T19:39:05.055Z,84.50
2022-10-11T19:41:32.393Z,90.40
2022-10-11T19:43:59.823Z,107.80
2022-10-11T19:46:49.963Z,86.30
2022-10-11T19:49:17.503Z,86.00
2022-10-11T19:51:45.242Z,69.10
2022-10-11T19:54:12.869Z,78.10
2022-10-11T19:56:39.857Z,86.10
2022-10-11T19:59:06.925Z,75.70
2022-10-11T20:01:34.880Z,84.40
2022-10-11T20:04:04.049Z,88.70
2022-10-11T20:06:37.208Z,81.60
2022-10-11T20:09:27.867Z,84.10
2022-10-11T20:11:53.217Z,68.30
2022-10-11T20:14:20.657Z,73.20
2022-10-11T20:16:49.950Z,72.20
2022-10-11T20:19:17.305Z,74.30
2022-10-11T20:21:45.523Z,68.40
2022-10-11T20:24:12.521Z,67.20
2022-10-11T20:26:39.537Z,64.70
2022-10-11T20:29:07.585Z,67.90
2022-10-11T20:31:38.269Z,68.60
2022-10-11T20:34:07.445Z,54.10
2022-10-11T20:36:36.423Z,57.90
2022-10-11T20:39:03.953Z,62.60
2022-10-11T20:41:33.078Z,64.00
2022-10-11T20:44:01.590Z,73.10
2022-10-11T20:46:32.932Z,60.00
2022-10-11T20:49:02.322Z,58.60
2022-10-11T20:51:30.691Z,70.40
2022-10-11T20:53:58.435Z,60.30
2022-10-11T20:56:25.830Z,60.70
2022-10-11T20:58:54.132Z,63.60
2022-10-11T21:01:30.074Z,56.10
2022-10-11T21:03:58.216Z,55.90
2022-10-11T21:06:27.741Z,62.70
2022-10-11T21:08:55.937Z,64.10
2022-10-11T21:11:31.363Z,62.90
2022-10-11T21:13:59.338Z,47.40
2022-10-11T21:16:28.657Z,56.10
2022-10-11T21:18:57.025Z,60.70
2022-10-11T21:21:24.502Z,57.80
2022-10-11T21:23:59.791Z,60.70
2022-10-11T21:26:27.982Z,61.70
2022-10-11T21:28:55.351Z,60.20
2022-10-11T21:31:22.821Z,68.50
2022-10-11T21:33:50.656Z,50.90
2022-10-11T21:36:19.224Z,55.40
2022-10-11T21:38:46.716Z,52.20
2022-10-11T21:41:15.398Z,54.00
2022-10-11T21:43:42.775Z,45.90
2022-10-11T21:46:18.051Z,38.00
2022-10-11T21:48:46.945Z,36.20
2022-10-11T21:53:47.339Z,37.10
2022-10-11T21:56:14.985Z,32.60
2022-10-11T21:58:42.097Z,29.60
2022-10-11T22:01:11.048Z,31.80
2022-10-11T22:03:37.998Z,36.80
2022-10-11T22:06:05.396Z,37.50
2022-10-11T22:08:32.913Z,39.00
2022-10-11T22:11:02.247Z,50.50
2022-10-11T22:13:31.399Z,57.90
2022-10-11T22:16:01.279Z,70.30
2022-10-11T22:18:33.091Z,73.20
2022-10-11T22:21:14.398Z,66.30
2022-10-11T22:23:42.309Z,59.00
2022-10-11T22:26:14.764Z,43.90
2022-10-11T22:28:42.049Z,48.60
2022-10-11T22:31:09.370Z,49.00
2022-10-11T22:33:36.952Z,52.90
2022-10-11T22:36:05.557Z,53.00
2022-10-11T22:38:32.649Z,44.20
2022-10-11T22:40:59.843Z,41.40
2022-10-11T22:43:26.943Z,43.50
2022-10-11T22:45:54.054Z,38.80
2022-10-11T22:48:21.234Z,41.30
2022-10-11T22:50:49.492Z,43.30
2022-10-11T22:53:16.416Z,42.90
2022-10-11T22:55:43.675Z,38.60
2022-10-11T22:58:10.799Z,38.90
2022-10-11T23:00:38.044Z,34.30
2022-10-11T23:03:07.163Z,27.80
2022-10-11T23:05:36.074Z,30.20
2022-10-11T23:08:03.041Z,29.10
2022-10-11T23:10:30.181Z,28.90
2022-10-11T23:13:01.114Z,29.20
2022-10-11T23:15:28.115Z,27.50
2022-10-11T23:17:55.048Z,28.40
2022-10-11T23:20:22.413Z,23.60
2022-10-11T23:22:49.406Z,27.80
2022-10-11T23:25:16.345Z,23.50
2022-10-11T23:27:43.733Z,25.30
2022-10-11T23:30:12.025Z,23.60
2022-10-11T23:32:39.081Z,26.40
2022-10-11T23:35:06.478Z,30.00
2022-10-11T23:37:34.411Z,28.20
2022-10-11T23:40:01.533Z,26.60
2022-10-11T23:42:28.753Z,23.10
2022-10-11T23:44:55.807Z,21.00
2022-10-11T23:47:25.929Z,23.00
2022-10-11T23:49:53.105Z,21.40
2022-10-11T23:52:20.053Z,20.80
2022-10-11T23:54:47.459Z,23.80
2022-10-11T23:57:14.363Z,25.90
2022-10-11T23:59:41.324Z,20.30
